Janet — 9HSL8 — position and weather

sailwx.info

Track history (hours):
 
Tides and Currents Weather Stations Pressure Air Temp Water Temp Dewpoint Dewpoint Depression Visibility Wind Speed Wind Dir Waves Ship Positions

Janet

Last reported at 2016-Jun-19 16:16 UTC. Time now 2016-Jun-26 10:12 UTC.
Position N 38°48' W 009°51'.

Length 90 m; draft 3.8 m.

Type: Cargo ship. MMSI: 256371000.

Date/timePositionNaut miles runAvg speedWind from/ knotsBaromVisibWave heightAir tempDewpointWater temp
2016-Jun-19 16:16N 38°48' W 009°51'5 6.6
2016-Jun-19 15:33N 38°43' W 009°51'7 6.6
2016-Jun-19 14:33N 38°37' W 009°50'7 6.5
2016-Jun-19 13:33N 38°30' W 009°48'6 6.3
2016-Jun-19 12:33N 38°24' W 009°46'7 6.7
2016-Jun-19 11:33N 38°18' W 009°44'6 5.4
2016-Jun-19 10:33N 38°12' W 009°43'6 5.5
2016-Jun-19 09:33N 38°07' W 009°41'6 6.5
2016-Jun-19 08:33N 38°01' W 009°39'7 7.1
2016-Jun-19 07:33N 37°54' W 009°37'8 7.7
2016-Jun-19 06:33N 37°46' W 009°35'7 7.3
2016-Jun-19 05:33N 37°39' W 009°33'11 5.3
2016-Jun-19 03:33N 37°29' W 009°30'23 4.5
2016-Jun-18 22:32N 37°06' W 009°24'3 3.0
2016-Jun-18 21:31N 37°04' W 009°23'3 3.6
2016-Jun-18 20:33N 37°00' W 009°22'4 4.0
2016-Jun-18 19:33N 36°56' W 009°20'  
2016-Jun-12 17:33N 36°17' W 008°57'1410.9
2016-Jun-12 16:15N 36°30' W 009°05'710.5
2016-Jun-12 15:33N 36°32' W 009°13'2110.4
2016-Jun-12 13:33N 36°46' W 009°33'1110.7
2016-Jun-12 12:33N 36°56' W 009°37'2310.6
2016-Jun-12 10:26N 37°18' W 009°43'1210.5
2016-Jun-12 09:19N 37°29' W 009°46'810.6
2016-Jun-12 08:33N 37°37' W 009°49'1010.4
2016-Jun-12 07:33N 37°47' W 009°52'1310.5
2016-Jun-12 06:17N 38°00' W 009°55'1810.5
2016-Jun-12 04:34N 38°18' W 010°01'1110.6
2016-Jun-12 03:33N 38°28' W 010°04'1110.7
2016-Jun-12 02:33N 38°39' W 010°06'2210.9
2016-Jun-12 00:33N 39°00' W 010°07'340 8.1
2016-Jun-10 06:29N 43°48' W 006°06'1010.2
2016-Jun-10 05:33N 43°46' W 005°53'9 9.4
2016-Jun-10 04:33N 43°45' W 005°40'10 9.6
2016-Jun-10 03:34N 43°44' W 005°27'10 9.8
2016-Jun-10 02:33N 43°43' W 005°13'10 9.7
2016-Jun-10 01:33N 43°42' W 004°60'  
Track history (hours):
 
Tides and Currents Weather Stations Pressure Air Temp Water Temp Dewpoint Dewpoint Depression Visibility Wind Speed Wind Dir Waves Ship Positions

Janet

Last reported at 2016-Jun-19 16:16 UTC. Time now 2016-Jun-26 10:12 UTC.
Position N 38°48' W 009°51'.

Length 90 m; draft 3.8 m.

Type: Cargo ship. MMSI: 256371000.

Date/timePositionNaut miles runAvg speedWind from/ knotsBaromVisibWave heightAir tempDewpointWater temp
2016-Jun-19 16:16N 38°48' W 009°51'5 6.6
2016-Jun-19 15:33N 38°43' W 009°51'7 6.6
2016-Jun-19 14:33N 38°37' W 009°50'7 6.5
2016-Jun-19 13:33N 38°30' W 009°48'6 6.3
2016-Jun-19 12:33N 38°24' W 009°46'7 6.7
2016-Jun-19 11:33N 38°18' W 009°44'6 5.4
2016-Jun-19 10:33N 38°12' W 009°43'6 5.5
2016-Jun-19 09:33N 38°07' W 009°41'6 6.5
2016-Jun-19 08:33N 38°01' W 009°39'7 7.1
2016-Jun-19 07:33N 37°54' W 009°37'8 7.7
2016-Jun-19 06:33N 37°46' W 009°35'7 7.3
2016-Jun-19 05:33N 37°39' W 009°33'11 5.3
2016-Jun-19 03:33N 37°29' W 009°30'23 4.5
2016-Jun-18 22:32N 37°06' W 009°24'3 3.0
2016-Jun-18 21:31N 37°04' W 009°23'3 3.6
2016-Jun-18 20:33N 37°00' W 009°22'4 4.0
2016-Jun-18 19:33N 36°56' W 009°20'  
2016-Jun-12 17:33N 36°17' W 008°57'1410.9
2016-Jun-12 16:15N 36°30' W 009°05'710.5
2016-Jun-12 15:33N 36°32' W 009°13'2110.4
2016-Jun-12 13:33N 36°46' W 009°33'1110.7
2016-Jun-12 12:33N 36°56' W 009°37'2310.6
2016-Jun-12 10:26N 37°18' W 009°43'1210.5
2016-Jun-12 09:19N 37°29' W 009°46'810.6
2016-Jun-12 08:33N 37°37' W 009°49'1010.4
2016-Jun-12 07:33N 37°47' W 009°52'1310.5
2016-Jun-12 06:17N 38°00' W 009°55'1810.5
2016-Jun-12 04:34N 38°18' W 010°01'1110.6
2016-Jun-12 03:33N 38°28' W 010°04'1110.7
2016-Jun-12 02:33N 38°39' W 010°06'2210.9
2016-Jun-12 00:33N 39°00' W 010°07'340 8.1
2016-Jun-10 06:29N 43°48' W 006°06'1010.2
2016-Jun-10 05:33N 43°46' W 005°53'9 9.4
2016-Jun-10 04:33N 43°45' W 005°40'10 9.6
2016-Jun-10 03:34N 43°44' W 005°27'10 9.8
2016-Jun-10 02:33N 43°43' W 005°13'10 9.7
2016-Jun-10 01:33N 43°42' W 004°60'  

Dump ship's entire track history